This is the latest recevied weather packets stored in our database for station/object OE5OVL-13. If no packets are shown the sender has not sent any weather packets the latest 10 day(s).
| Time | Temp. | Humidity | Pressure | Rain* | Wind** | Luminosity | Snow |
|---|---|---|---|---|---|---|---|
| 1777380587 | 27.22° C | 27% | 737.5 hPa | 0 mm | - | - | - |
| 1777379676 | 26.67° C | 28% | 736.8 hPa | 0 mm | - | - | - |
| 1777377852 | 24.44° C | 30% | 734.2 hPa | 0 mm | - | - | - |
| 1777376940 | 23.89° C | 32% | 733.7 hPa | 0 mm | - | - | - |
| 1777376029 | 23.33° C | 34% | 733.1 hPa | 0 mm | - | - | - |
| 1777375117 | 22.78° C | 35% | 732.1 hPa | 0 mm | - | - | - |
| 1777374205 | 21.67° C | 34% | 730.7 hPa | 0 mm | - | - | - |
| 1777373293 | 21.11° C | 35% | 730.4 hPa | 0 mm | - | - | - |
| 1777372382 | 21.11° C | 37% | 730.1 hPa | 0 mm | - | - | - |
| 1777371470 | 20.56° C | 39% | 729.6 hPa | 0 mm | - | - | - |
| 1777370558 | 19.44° C | 38% | 728.4 hPa | 0 mm | - | - | - |
| 1777369647 | 19.44° C | 40% | 728.5 hPa | 0 mm | - | - | - |
| 1777368735 | 19.44° C | 41% | 728.1 hPa | 0 mm | - | - | - |
| 1777367823 | 18.33° C | 43% | 727.3 hPa | 0 mm | - | - | - |
| 1777366911 | 17.78° C | 45% | 726.7 hPa | 0 mm | - | - | - |
| 1777365998 | 17.22° C | 46% | 725.5 hPa | 0 mm | - | - | - |
| 1777365086 | 16.11° C | 50% | 724.2 hPa | 0 mm | - | - | - |
| 1777364174 | 15.56° C | 49% | 723.9 hPa | 0 mm | - | - | - |
| 1777363263 | 15° C | 51% | 723.2 hPa | 0 mm | - | - | - |
| 1777362351 | 14.44° C | 52% | 722.3 hPa | 0 mm | - | - | - |
| 1777361439 | 15° C | 54% | 723 hPa | 0 mm | - | - | - |
| 1777360527 | 13.89° C | 54% | 721.9 hPa | 0 mm | - | - | - |
| 1777359616 | 13.33° C | 53% | 721.2 hPa | 0 mm | - | - | - |
| 1777356881 | 11.11° C | 59% | 719.1 hPa | 0 mm | - | - | - |
| 1777355969 | 11.11° C | 61% | 718.6 hPa | 0 mm | - | - | - |
* Rain latest hour (hover to see other rain measurements)
** Current wind speed in m/s (hover to see current wind gust speed)